sensor_id;sensor_type;location;lat;lon;timestamp;P1;durP1;ratioP1;P2;durP2;ratioP2
68976;SDS011;56029;52.568;13.588;2022-10-15T00:01:36;26.75;;;14.75;;
68976;SDS011;56029;52.568;13.588;2022-10-15T00:04:02;26.67;;;14.85;;
68976;SDS011;56029;52.568;13.588;2022-10-15T00:06:27;29.23;;;14.93;;
68976;SDS011;56029;52.568;13.588;2022-10-15T00:08:53;28.85;;;15.23;;
68976;SDS011;56029;52.568;13.588;2022-10-15T00:11:24;27.00;;;15.13;;
68976;SDS011;56029;52.568;13.588;2022-10-15T00:13:54;28.00;;;14.68;;
68976;SDS011;56029;52.568;13.588;2022-10-15T00:16:22;27.45;;;15.55;;
68976;SDS011;56029;52.568;13.588;2022-10-15T00:18:49;27.42;;;14.15;;
68976;SDS011;56029;52.568;13.588;2022-10-15T00:21:16;27.33;;;14.23;;
68976;SDS011;56029;52.568;13.588;2022-10-15T00:23:44;26.10;;;14.67;;
68976;SDS011;56029;52.568;13.588;2022-10-15T00:26:15;28.70;;;15.32;;
68976;SDS011;56029;52.568;13.588;2022-10-15T00:28:48;29.85;;;15.07;;
68976;SDS011;56029;52.568;13.588;2022-10-15T00:31:16;30.08;;;15.85;;
68976;SDS011;56029;52.568;13.588;2022-10-15T00:33:45;28.35;;;15.90;;
68976;SDS011;56029;52.568;13.588;2022-10-15T00:36:14;26.90;;;15.13;;
68976;SDS011;56029;52.568;13.588;2022-10-15T00:38:45;28.98;;;15.10;;
68976;SDS011;56029;52.568;13.588;2022-10-15T00:41:12;28.55;;;15.80;;
68976;SDS011;56029;52.568;13.588;2022-10-15T00:43:44;27.40;;;15.52;;
68976;SDS011;56029;52.568;13.588;2022-10-15T00:46:39;27.73;;;15.18;;
68976;SDS011;56029;52.568;13.588;2022-10-15T00:49:12;29.40;;;15.17;;
68976;SDS011;56029;52.568;13.588;2022-10-15T00:51:40;28.38;;;15.55;;
68976;SDS011;56029;52.568;13.588;2022-10-15T00:54:09;30.05;;;15.77;;
68976;SDS011;56029;52.568;13.588;2022-10-15T00:56:35;32.42;;;16.88;;
68976;SDS011;56029;52.568;13.588;2022-10-15T00:59:03;30.63;;;16.40;;
68976;SDS011;56029;52.568;13.588;2022-10-15T01:01:30;28.70;;;16.47;;
68976;SDS011;56029;52.568;13.588;2022-10-15T01:03:55;28.63;;;15.82;;
68976;SDS011;56029;52.568;13.588;2022-10-15T01:06:22;31.27;;;16.30;;
68976;SDS011;56029;52.568;13.588;2022-10-15T01:08:49;32.97;;;16.73;;
68976;SDS011;56029;52.568;13.588;2022-10-15T01:20:13;31.48;;;15.35;;
68976;SDS011;56029;52.568;13.588;2022-10-15T01:22:59;28.97;;;15.27;;
68976;SDS011;56029;52.568;13.588;2022-10-15T01:28:39;29.77;;;15.63;;
68976;SDS011;56029;52.568;13.588;2022-10-15T01:31:24;30.20;;;15.10;;
68976;SDS011;56029;52.568;13.588;2022-10-15T01:34:03;30.13;;;15.13;;
68976;SDS011;56029;52.568;13.588;2022-10-15T01:36:51;28.47;;;15.27;;
68976;SDS011;56029;52.568;13.588;2022-10-15T01:39:31;28.35;;;15.07;;
68976;SDS011;56029;52.568;13.588;2022-10-15T01:42:00;26.98;;;14.95;;
68976;SDS011;56029;52.568;13.588;2022-10-15T01:44:30;28.60;;;14.98;;
68976;SDS011;56029;52.568;13.588;2022-10-15T01:47:02;28.13;;;15.20;;
68976;SDS011;56029;52.568;13.588;2022-10-15T01:49:30;31.13;;;15.00;;
68976;SDS011;56029;52.568;13.588;2022-10-15T01:51:59;29.05;;;15.00;;
68976;SDS011;56029;52.568;13.588;2022-10-15T01:54:28;29.35;;;15.10;;
68976;SDS011;56029;52.568;13.588;2022-10-15T01:56:54;30.95;;;15.88;;
68976;SDS011;56029;52.568;13.588;2022-10-15T01:59:23;28.92;;;15.48;;
68976;SDS011;56029;52.568;13.588;2022-10-15T02:01:53;28.10;;;15.43;;
68976;SDS011;56029;52.568;13.588;2022-10-15T02:04:26;30.45;;;15.68;;
68976;SDS011;56029;52.568;13.588;2022-10-15T02:06:58;28.30;;;15.18;;
68976;SDS011;56029;52.568;13.588;2022-10-15T02:09:51;31.00;;;15.13;;
68976;SDS011;56029;52.568;13.588;2022-10-15T02:20:43;30.90;;;15.38;;
68976;SDS011;56029;52.568;13.588;2022-10-15T02:23:20;29.05;;;14.50;;
68976;SDS011;56029;52.568;13.588;2022-10-15T02:25:49;28.90;;;14.98;;
68976;SDS011;56029;52.568;13.588;2022-10-15T02:28:17;29.50;;;14.87;;
68976;SDS011;56029;52.568;13.588;2022-10-15T02:30:45;29.52;;;15.50;;
68976;SDS011;56029;52.568;13.588;2022-10-15T02:33:14;28.38;;;14.65;;
68976;SDS011;56029;52.568;13.588;2022-10-15T02:35:41;26.75;;;14.32;;
68976;SDS011;56029;52.568;13.588;2022-10-15T02:38:09;28.93;;;14.27;;
68976;SDS011;56029;52.568;13.588;2022-10-15T02:40:37;28.60;;;14.20;;
68976;SDS011;56029;52.568;13.588;2022-10-15T02:43:05;28.80;;;14.95;;
68976;SDS011;56029;52.568;13.588;2022-10-15T02:45:34;27.50;;;14.27;;
68976;SDS011;56029;52.568;13.588;2022-10-15T02:48:00;29.27;;;14.80;;
68976;SDS011;56029;52.568;13.588;2022-10-15T02:50:25;29.13;;;15.13;;
68976;SDS011;56029;52.568;13.588;2022-10-15T02:52:51;30.83;;;14.70;;
68976;SDS011;56029;52.568;13.588;2022-10-15T02:55:17;27.47;;;14.57;;
68976;SDS011;56029;52.568;13.588;2022-10-15T02:57:43;30.98;;;15.15;;
68976;SDS011;56029;52.568;13.588;2022-10-15T03:00:08;28.47;;;15.00;;
68976;SDS011;56029;52.568;13.588;2022-10-15T03:02:34;29.92;;;15.20;;
68976;SDS011;56029;52.568;13.588;2022-10-15T03:05:00;30.03;;;15.57;;
68976;SDS011;56029;52.568;13.588;2022-10-15T03:07:25;31.53;;;15.03;;
68976;SDS011;56029;52.568;13.588;2022-10-15T03:09:50;28.73;;;15.13;;
68976;SDS011;56029;52.568;13.588;2022-10-15T03:12:16;28.03;;;14.67;;
68976;SDS011;56029;52.568;13.588;2022-10-15T03:14:42;29.23;;;14.83;;
68976;SDS011;56029;52.568;13.588;2022-10-15T03:17:07;29.60;;;14.93;;
68976;SDS011;56029;52.568;13.588;2022-10-15T03:19:32;28.43;;;14.47;;
68976;SDS011;56029;52.568;13.588;2022-10-15T03:21:58;27.50;;;14.43;;
68976;SDS011;56029;52.568;13.588;2022-10-15T03:24:23;29.93;;;14.47;;
68976;SDS011;56029;52.568;13.588;2022-10-15T03:26:49;28.58;;;14.88;;
68976;SDS011;56029;52.568;13.588;2022-10-15T03:29:14;27.67;;;14.20;;
68976;SDS011;56029;52.568;13.588;2022-10-15T03:31:40;29.43;;;14.77;;
68976;SDS011;56029;52.568;13.588;2022-10-15T03:34:05;30.50;;;15.02;;
68976;SDS011;56029;52.568;13.588;2022-10-15T03:36:31;29.60;;;14.90;;
68976;SDS011;56029;52.568;13.588;2022-10-15T03:38:56;28.70;;;14.93;;
68976;SDS011;56029;52.568;13.588;2022-10-15T03:41:22;29.63;;;14.95;;
68976;SDS011;56029;52.568;13.588;2022-10-15T03:43:47;29.20;;;14.50;;
68976;SDS011;56029;52.568;13.588;2022-10-15T03:46:13;25.33;;;14.20;;
68976;SDS011;56029;52.568;13.588;2022-10-15T03:48:40;30.00;;;15.45;;
68976;SDS011;56029;52.568;13.588;2022-10-15T03:51:05;29.07;;;14.73;;
68976;SDS011;56029;52.568;13.588;2022-10-15T03:53:30;28.73;;;14.27;;
68976;SDS011;56029;52.568;13.588;2022-10-15T03:56:01;28.20;;;14.47;;
68976;SDS011;56029;52.568;13.588;2022-10-15T03:58:28;30.25;;;15.43;;
68976;SDS011;56029;52.568;13.588;2022-10-15T04:00:53;29.87;;;14.97;;
68976;SDS011;56029;52.568;13.588;2022-10-15T04:03:19;29.77;;;15.43;;
68976;SDS011;56029;52.568;13.588;2022-10-15T04:05:50;31.27;;;15.50;;
68976;SDS011;56029;52.568;13.588;2022-10-15T04:08:17;30.23;;;14.80;;
68976;SDS011;56029;52.568;13.588;2022-10-15T04:10:42;31.23;;;15.20;;
68976;SDS011;56029;52.568;13.588;2022-10-15T04:13:08;32.85;;;15.68;;
68976;SDS011;56029;52.568;13.588;2022-10-15T04:15:33;32.50;;;15.07;;
68976;SDS011;56029;52.568;13.588;2022-10-15T04:17:59;28.63;;;15.23;;
68976;SDS011;56029;52.568;13.588;2022-10-15T04:20:25;27.75;;;14.75;;
68976;SDS011;56029;52.568;13.588;2022-10-15T04:22:50;29.70;;;14.83;;
68976;SDS011;56029;52.568;13.588;2022-10-15T04:25:16;33.17;;;15.40;;
68976;SDS011;56029;52.568;13.588;2022-10-15T04:27:41;29.67;;;14.63;;
68976;SDS011;56029;52.568;13.588;2022-10-15T04:30:07;31.87;;;15.40;;
68976;SDS011;56029;52.568;13.588;2022-10-15T04:32:33;28.48;;;14.63;;
68976;SDS011;56029;52.568;13.588;2022-10-15T04:34:58;29.47;;;15.23;;
68976;SDS011;56029;52.568;13.588;2022-10-15T04:37:24;30.60;;;15.48;;
68976;SDS011;56029;52.568;13.588;2022-10-15T04:39:49;28.40;;;14.90;;
68976;SDS011;56029;52.568;13.588;2022-10-15T04:42:15;32.07;;;15.00;;
68976;SDS011;56029;52.568;13.588;2022-10-15T04:44:40;29.27;;;15.27;;
68976;SDS011;56029;52.568;13.588;2022-10-15T04:47:06;31.95;;;15.25;;
68976;SDS011;56029;52.568;13.588;2022-10-15T04:49:31;31.10;;;15.77;;
68976;SDS011;56029;52.568;13.588;2022-10-15T04:51:57;30.30;;;14.67;;
68976;SDS011;56029;52.568;13.588;2022-10-15T04:54:22;30.33;;;15.07;;
68976;SDS011;56029;52.568;13.588;2022-10-15T04:56:48;31.70;;;15.10;;
68976;SDS011;56029;52.568;13.588;2022-10-15T04:59:13;30.13;;;15.50;;
68976;SDS011;56029;52.568;13.588;2022-10-15T05:01:39;26.70;;;14.55;;
68976;SDS011;56029;52.568;13.588;2022-10-15T05:04:04;30.20;;;14.93;;
68976;SDS011;56029;52.568;13.588;2022-10-15T05:06:30;28.30;;;14.20;;
68976;SDS011;56029;52.568;13.588;2022-10-15T05:08:57;27.70;;;14.82;;
68976;SDS011;56029;52.568;13.588;2022-10-15T05:11:23;29.00;;;14.65;;
68976;SDS011;56029;52.568;13.588;2022-10-15T05:13:51;28.92;;;15.13;;
68976;SDS011;56029;52.568;13.588;2022-10-15T05:16:19;29.63;;;14.70;;
68976;SDS011;56029;52.568;13.588;2022-10-15T05:18:48;32.10;;;15.98;;
68976;SDS011;56029;52.568;13.588;2022-10-15T05:21:15;29.98;;;15.23;;
68976;SDS011;56029;52.568;13.588;2022-10-15T05:23:42;32.45;;;15.65;;
68976;SDS011;56029;52.568;13.588;2022-10-15T05:26:12;28.60;;;15.73;;
68976;SDS011;56029;52.568;13.588;2022-10-15T05:28:39;28.88;;;14.85;;
68976;SDS011;56029;52.568;13.588;2022-10-15T05:31:12;28.17;;;14.75;;
68976;SDS011;56029;52.568;13.588;2022-10-15T05:33:39;31.77;;;15.90;;
68976;SDS011;56029;52.568;13.588;2022-10-15T05:36:11;31.40;;;16.10;;
68976;SDS011;56029;52.568;13.588;2022-10-15T05:38:42;29.10;;;15.20;;
68976;SDS011;56029;52.568;13.588;2022-10-15T05:41:08;32.83;;;15.63;;
68976;SDS011;56029;52.568;13.588;2022-10-15T05:43:34;27.57;;;15.07;;
68976;SDS011;56029;52.568;13.588;2022-10-15T05:45:59;28.00;;;15.48;;
68976;SDS011;56029;52.568;13.588;2022-10-15T05:48:25;29.63;;;15.20;;
68976;SDS011;56029;52.568;13.588;2022-10-15T05:50:51;27.63;;;14.20;;
68976;SDS011;56029;52.568;13.588;2022-10-15T05:53:16;27.43;;;14.37;;
68976;SDS011;56029;52.568;13.588;2022-10-15T05:55:42;29.95;;;14.68;;
68976;SDS011;56029;52.568;13.588;2022-10-15T05:58:07;27.93;;;14.67;;
68976;SDS011;56029;52.568;13.588;2022-10-15T06:00:33;28.13;;;14.97;;
68976;SDS011;56029;52.568;13.588;2022-10-15T06:02:59;27.98;;;14.90;;
68976;SDS011;56029;52.568;13.588;2022-10-15T06:05:24;26.60;;;14.67;;
68976;SDS011;56029;52.568;13.588;2022-10-15T06:07:50;30.10;;;15.23;;
68976;SDS011;56029;52.568;13.588;2022-10-15T06:10:16;26.77;;;14.47;;
68976;SDS011;56029;52.568;13.588;2022-10-15T06:12:41;29.83;;;14.93;;
68976;SDS011;56029;52.568;13.588;2022-10-15T06:15:10;27.57;;;14.10;;
68976;SDS011;56029;52.568;13.588;2022-10-15T06:17:36;26.58;;;14.13;;
68976;SDS011;56029;52.568;13.588;2022-10-15T06:20:02;27.90;;;14.60;;
68976;SDS011;56029;52.568;13.588;2022-10-15T06:22:30;26.73;;;14.40;;
68976;SDS011;56029;52.568;13.588;2022-10-15T06:24:56;27.75;;;14.23;;
68976;SDS011;56029;52.568;13.588;2022-10-15T06:27:21;27.13;;;14.13;;
68976;SDS011;56029;52.568;13.588;2022-10-15T06:29:47;28.35;;;14.57;;
68976;SDS011;56029;52.568;13.588;2022-10-15T06:32:12;25.77;;;14.23;;
68976;SDS011;56029;52.568;13.588;2022-10-15T06:34:38;24.13;;;13.67;;
68976;SDS011;56029;52.568;13.588;2022-10-15T06:37:03;27.20;;;13.47;;
68976;SDS011;56029;52.568;13.588;2022-10-15T06:39:29;25.25;;;13.98;;
68976;SDS011;56029;52.568;13.588;2022-10-15T06:41:54;25.33;;;13.43;;
68976;SDS011;56029;52.568;13.588;2022-10-15T06:44:20;24.05;;;13.20;;
68976;SDS011;56029;52.568;13.588;2022-10-15T06:46:46;26.30;;;13.90;;
68976;SDS011;56029;52.568;13.588;2022-10-15T06:49:11;23.53;;;13.00;;
68976;SDS011;56029;52.568;13.588;2022-10-15T06:51:37;23.27;;;12.57;;
68976;SDS011;56029;52.568;13.588;2022-10-15T06:54:03;23.70;;;13.67;;
68976;SDS011;56029;52.568;13.588;2022-10-15T06:56:28;24.08;;;13.07;;
68976;SDS011;56029;52.568;13.588;2022-10-15T06:58:54;24.03;;;13.93;;
68976;SDS011;56029;52.568;13.588;2022-10-15T07:01:19;23.55;;;13.13;;
68976;SDS011;56029;52.568;13.588;2022-10-15T07:03:48;22.70;;;13.03;;
68976;SDS011;56029;52.568;13.588;2022-10-15T07:06:14;23.80;;;13.07;;
68976;SDS011;56029;52.568;13.588;2022-10-15T07:08:39;22.00;;;12.37;;
68976;SDS011;56029;52.568;13.588;2022-10-15T07:11:08;23.70;;;12.77;;
68976;SDS011;56029;52.568;13.588;2022-10-15T07:13:33;22.03;;;12.13;;
68976;SDS011;56029;52.568;13.588;2022-10-15T07:16:07;22.08;;;12.50;;
68976;SDS011;56029;52.568;13.588;2022-10-15T07:18:33;23.10;;;12.57;;
68976;SDS011;56029;52.568;13.588;2022-10-15T07:21:00;22.88;;;12.60;;
68976;SDS011;56029;52.568;13.588;2022-10-15T07:23:26;22.02;;;12.25;;
68976;SDS011;56029;52.568;13.588;2022-10-15T07:25:52;21.60;;;12.47;;
68976;SDS011;56029;52.568;13.588;2022-10-15T07:28:17;22.00;;;12.32;;
68976;SDS011;56029;52.568;13.588;2022-10-15T07:30:43;21.33;;;11.70;;
68976;SDS011;56029;52.568;13.588;2022-10-15T07:33:08;21.30;;;11.70;;
68976;SDS011;56029;52.568;13.588;2022-10-15T07:35:35;21.80;;;12.57;;
68976;SDS011;56029;52.568;13.588;2022-10-15T07:38:02;20.75;;;12.02;;
68976;SDS011;56029;52.568;13.588;2022-10-15T07:40:28;21.48;;;11.93;;
68976;SDS011;56029;52.568;13.588;2022-10-15T07:42:55;19.75;;;12.13;;
68976;SDS011;56029;52.568;13.588;2022-10-15T07:45:21;19.13;;;11.27;;
68976;SDS011;56029;52.568;13.588;2022-10-15T07:47:48;19.35;;;11.55;;
68976;SDS011;56029;52.568;13.588;2022-10-15T07:50:14;20.02;;;11.50;;
68976;SDS011;56029;52.568;13.588;2022-10-15T07:52:39;18.43;;;10.87;;
68976;SDS011;56029;52.568;13.588;2022-10-15T07:55:05;20.58;;;11.35;;
68976;SDS011;56029;52.568;13.588;2022-10-15T07:57:31;19.38;;;11.45;;
68976;SDS011;56029;52.568;13.588;2022-10-15T07:59:57;18.80;;;11.07;;
68976;SDS011;56029;52.568;13.588;2022-10-15T08:02:22;19.00;;;11.40;;
68976;SDS011;56029;52.568;13.588;2022-10-15T08:04:48;18.33;;;11.32;;
68976;SDS011;56029;52.568;13.588;2022-10-15T08:07:13;19.73;;;10.87;;
68976;SDS011;56029;52.568;13.588;2022-10-15T08:09:39;18.67;;;10.83;;
68976;SDS011;56029;52.568;13.588;2022-10-15T08:12:04;19.07;;;11.17;;
68976;SDS011;56029;52.568;13.588;2022-10-15T08:14:31;20.27;;;10.85;;
68976;SDS011;56029;52.568;13.588;2022-10-15T08:16:58;21.13;;;10.75;;
68976;SDS011;56029;52.568;13.588;2022-10-15T08:19:23;17.70;;;10.20;;
68976;SDS011;56029;52.568;13.588;2022-10-15T08:21:49;19.20;;;11.45;;
68976;SDS011;56029;52.568;13.588;2022-10-15T08:24:14;18.50;;;11.07;;
68976;SDS011;56029;52.568;13.588;2022-10-15T08:26:40;17.70;;;11.03;;
68976;SDS011;56029;52.568;13.588;2022-10-15T08:29:05;20.77;;;11.65;;
68976;SDS011;56029;52.568;13.588;2022-10-15T08:31:31;18.37;;;10.93;;
68976;SDS011;56029;52.568;13.588;2022-10-15T08:33:59;20.03;;;10.97;;
68976;SDS011;56029;52.568;13.588;2022-10-15T08:36:25;18.73;;;10.65;;
68976;SDS011;56029;52.568;13.588;2022-10-15T08:38:54;17.23;;;10.23;;
68976;SDS011;56029;52.568;13.588;2022-10-15T08:43:54;20.02;;;10.10;;
68976;SDS011;56029;52.568;13.588;2022-10-15T08:46:32;17.07;;;10.20;;
68976;SDS011;56029;52.568;13.588;2022-10-15T08:49:02;16.83;;;9.93;;
68976;SDS011;56029;52.568;13.588;2022-10-15T08:51:35;19.40;;;10.13;;
68976;SDS011;56029;52.568;13.588;2022-10-15T08:54:05;16.13;;;9.95;;
68976;SDS011;56029;52.568;13.588;2022-10-15T08:56:37;17.23;;;9.70;;
68976;SDS011;56029;52.568;13.588;2022-10-15T08:59:24;16.63;;;9.47;;
68976;SDS011;56029;52.568;13.588;2022-10-15T09:01:57;17.05;;;9.60;;
68976;SDS011;56029;52.568;13.588;2022-10-15T09:04:41;17.33;;;9.93;;
68976;SDS011;56029;52.568;13.588;2022-10-15T09:10:15;16.25;;;9.80;;
68976;SDS011;56029;52.568;13.588;2022-10-15T09:12:50;17.03;;;9.03;;
68976;SDS011;56029;52.568;13.588;2022-10-15T09:15:33;14.60;;;9.60;;
68976;SDS011;56029;52.568;13.588;2022-10-15T09:18:04;14.95;;;9.23;;
68976;SDS011;56029;52.568;13.588;2022-10-15T09:20:33;14.70;;;8.70;;
68976;SDS011;56029;52.568;13.588;2022-10-15T09:23:00;15.18;;;9.90;;
68976;SDS011;56029;52.568;13.588;2022-10-15T09:25:31;14.23;;;8.67;;
68976;SDS011;56029;52.568;13.588;2022-10-15T09:28:01;16.20;;;9.15;;
68976;SDS011;56029;52.568;13.588;2022-10-15T09:33:14;14.77;;;9.30;;
68976;SDS011;56029;52.568;13.588;2022-10-15T09:36:07;15.02;;;8.77;;
68976;SDS011;56029;52.568;13.588;2022-10-15T09:43:48;14.57;;;9.00;;
68976;SDS011;56029;52.568;13.588;2022-10-15T09:46:15;15.15;;;9.13;;
68976;SDS011;56029;52.568;13.588;2022-10-15T09:48:49;14.98;;;9.23;;
68976;SDS011;56029;52.568;13.588;2022-10-15T09:51:31;15.35;;;8.82;;
68976;SDS011;56029;52.568;13.588;2022-10-15T09:54:12;13.60;;;8.60;;
68976;SDS011;56029;52.568;13.588;2022-10-15T09:56:48;12.83;;;8.53;;
68976;SDS011;56029;52.568;13.588;2022-10-15T09:59:18;14.43;;;8.50;;
68976;SDS011;56029;52.568;13.588;2022-10-15T10:01:55;14.23;;;9.20;;
68976;SDS011;56029;52.568;13.588;2022-10-15T10:04:23;14.68;;;9.25;;
68976;SDS011;56029;52.568;13.588;2022-10-15T10:06:53;12.73;;;7.97;;
68976;SDS011;56029;52.568;13.588;2022-10-15T10:09:35;15.97;;;8.43;;
68976;SDS011;56029;52.568;13.588;2022-10-15T10:12:04;13.02;;;7.97;;
68976;SDS011;56029;52.568;13.588;2022-10-15T10:17:04;12.52;;;7.97;;
68976;SDS011;56029;52.568;13.588;2022-10-15T10:19:43;13.70;;;7.70;;
68976;SDS011;56029;52.568;13.588;2022-10-15T10:22:17;13.40;;;7.63;;
68976;SDS011;56029;52.568;13.588;2022-10-15T10:24:45;12.82;;;7.78;;
68976;SDS011;56029;52.568;13.588;2022-10-15T10:27:19;12.73;;;7.80;;
68976;SDS011;56029;52.568;13.588;2022-10-15T10:29:53;13.48;;;8.45;;
68976;SDS011;56029;52.568;13.588;2022-10-15T10:32:31;13.13;;;8.02;;
68976;SDS011;56029;52.568;13.588;2022-10-15T10:34:59;12.10;;;7.20;;
68976;SDS011;56029;52.568;13.588;2022-10-15T10:37:26;11.95;;;7.65;;
68976;SDS011;56029;52.568;13.588;2022-10-15T10:39:56;11.05;;;7.03;;
68976;SDS011;56029;52.568;13.588;2022-10-15T10:42:30;11.60;;;6.90;;
68976;SDS011;56029;52.568;13.588;2022-10-15T10:45:15;12.02;;;7.32;;
68976;SDS011;56029;52.568;13.588;2022-10-15T10:47:46;10.43;;;6.43;;
68976;SDS011;56029;52.568;13.588;2022-10-15T10:50:29;10.98;;;6.70;;
68976;SDS011;56029;52.568;13.588;2022-10-15T10:52:58;10.25;;;6.53;;
68976;SDS011;56029;52.568;13.588;2022-10-15T10:55:38;10.13;;;6.65;;
68976;SDS011;56029;52.568;13.588;2022-10-15T10:58:05;11.00;;;6.93;;
68976;SDS011;56029;52.568;13.588;2022-10-15T11:01:10;12.30;;;7.63;;
68976;SDS011;56029;52.568;13.588;2022-10-15T11:04:02;12.60;;;9.07;;
68976;SDS011;56029;52.568;13.588;2022-10-15T11:09:19;11.63;;;7.38;;
68976;SDS011;56029;52.568;13.588;2022-10-15T11:14:32;9.10;;;5.97;;
68976;SDS011;56029;52.568;13.588;2022-10-15T11:17:22;11.35;;;6.03;;
68976;SDS011;56029;52.568;13.588;2022-10-15T11:20:05;10.00;;;6.13;;
68976;SDS011;56029;52.568;13.588;2022-10-15T11:25:39;9.10;;;5.80;;
68976;SDS011;56029;52.568;13.588;2022-10-15T11:28:49;8.73;;;5.20;;
68976;SDS011;56029;52.568;13.588;2022-10-15T11:31:14;8.77;;;5.60;;
68976;SDS011;56029;52.568;13.588;2022-10-15T11:33:56;10.73;;;6.00;;
68976;SDS011;56029;52.568;13.588;2022-10-15T11:36:54;8.75;;;5.68;;
68976;SDS011;56029;52.568;13.588;2022-10-15T11:39:45;9.30;;;6.00;;
68976;SDS011;56029;52.568;13.588;2022-10-15T11:42:32;9.55;;;6.03;;
68976;SDS011;56029;52.568;13.588;2022-10-15T11:47:49;9.50;;;5.80;;
68976;SDS011;56029;52.568;13.588;2022-10-15T11:50:29;9.68;;;6.10;;
68976;SDS011;56029;52.568;13.588;2022-10-15T11:55:54;9.35;;;6.15;;
68976;SDS011;56029;52.568;13.588;2022-10-15T12:00:52;10.33;;;6.30;;
68976;SDS011;56029;52.568;13.588;2022-10-15T12:03:24;9.63;;;6.30;;
68976;SDS011;56029;52.568;13.588;2022-10-15T12:08:18;9.03;;;5.60;;
68976;SDS011;56029;52.568;13.588;2022-10-15T12:11:03;9.55;;;5.70;;
68976;SDS011;56029;52.568;13.588;2022-10-15T12:14:06;8.82;;;5.18;;
68976;SDS011;56029;52.568;13.588;2022-10-15T12:16:42;8.98;;;5.32;;
68976;SDS011;56029;52.568;13.588;2022-10-15T12:19:14;7.78;;;5.20;;
68976;SDS011;56029;52.568;13.588;2022-10-15T12:29:45;7.93;;;5.10;;
68976;SDS011;56029;52.568;13.588;2022-10-15T12:32:23;8.35;;;4.97;;
68976;SDS011;56029;52.568;13.588;2022-10-15T12:34:55;7.87;;;4.67;;
68976;SDS011;56029;52.568;13.588;2022-10-15T12:37:22;8.43;;;5.45;;
68976;SDS011;56029;52.568;13.588;2022-10-15T12:39:54;8.25;;;4.70;;
68976;SDS011;56029;52.568;13.588;2022-10-15T12:42:32;7.07;;;4.65;;
68976;SDS011;56029;52.568;13.588;2022-10-15T12:45:00;7.70;;;5.10;;
68976;SDS011;56029;52.568;13.588;2022-10-15T12:50:31;6.90;;;4.53;;
68976;SDS011;56029;52.568;13.588;2022-10-15T12:58:33;7.75;;;4.90;;
68976;SDS011;56029;52.568;13.588;2022-10-15T13:06:13;8.45;;;4.90;;
68976;SDS011;56029;52.568;13.588;2022-10-15T13:11:26;6.43;;;4.53;;
68976;SDS011;56029;52.568;13.588;2022-10-15T13:14:00;6.87;;;4.60;;
68976;SDS011;56029;52.568;13.588;2022-10-15T13:16:33;6.75;;;4.70;;
68976;SDS011;56029;52.568;13.588;2022-10-15T13:18:59;9.20;;;5.22;;
68976;SDS011;56029;52.568;13.588;2022-10-15T13:24:43;7.03;;;4.65;;
68976;SDS011;56029;52.568;13.588;2022-10-15T13:27:23;6.90;;;4.60;;
68976;SDS011;56029;52.568;13.588;2022-10-15T13:29:54;8.27;;;5.50;;
68976;SDS011;56029;52.568;13.588;2022-10-15T13:32:25;7.63;;;5.28;;
68976;SDS011;56029;52.568;13.588;2022-10-15T13:34:52;8.70;;;5.63;;
68976;SDS011;56029;52.568;13.588;2022-10-15T13:37:23;10.05;;;5.30;;
68976;SDS011;56029;52.568;13.588;2022-10-15T13:39:53;8.80;;;5.20;;
68976;SDS011;56029;52.568;13.588;2022-10-15T13:42:22;7.20;;;4.72;;
68976;SDS011;56029;52.568;13.588;2022-10-15T13:45:22;7.22;;;4.50;;
68976;SDS011;56029;52.568;13.588;2022-10-15T13:47:47;9.27;;;4.72;;
68976;SDS011;56029;52.568;13.588;2022-10-15T13:50:18;9.87;;;4.73;;
68976;SDS011;56029;52.568;13.588;2022-10-15T13:53:09;10.13;;;4.22;;
68976;SDS011;56029;52.568;13.588;2022-10-15T13:55:49;5.85;;;3.75;;
68976;SDS011;56029;52.568;13.588;2022-10-15T13:58:18;5.60;;;3.53;;
68976;SDS011;56029;52.568;13.588;2022-10-15T14:00:59;5.40;;;3.50;;
68976;SDS011;56029;52.568;13.588;2022-10-15T14:03:51;5.50;;;3.10;;
68976;SDS011;56029;52.568;13.588;2022-10-15T14:06:20;5.18;;;3.10;;
68976;SDS011;56029;52.568;13.588;2022-10-15T14:08:47;5.15;;;3.28;;
68976;SDS011;56029;52.568;13.588;2022-10-15T14:11:14;5.30;;;3.05;;
68976;SDS011;56029;52.568;13.588;2022-10-15T14:13:48;6.00;;;3.50;;
68976;SDS011;56029;52.568;13.588;2022-10-15T14:18:46;5.10;;;3.13;;
68976;SDS011;56029;52.568;13.588;2022-10-15T14:21:15;4.47;;;3.25;;
68976;SDS011;56029;52.568;13.588;2022-10-15T14:23:43;6.53;;;3.13;;
68976;SDS011;56029;52.568;13.588;2022-10-15T14:26:10;5.45;;;3.40;;
68976;SDS011;56029;52.568;13.588;2022-10-15T14:28:37;5.30;;;3.30;;
68976;SDS011;56029;52.568;13.588;2022-10-15T14:31:04;5.47;;;3.20;;
68976;SDS011;56029;52.568;13.588;2022-10-15T14:36:06;4.88;;;3.28;;
68976;SDS011;56029;52.568;13.588;2022-10-15T14:38:32;4.25;;;3.15;;
68976;SDS011;56029;52.568;13.588;2022-10-15T14:41:02;5.93;;;3.30;;
68976;SDS011;56029;52.568;13.588;2022-10-15T14:43:45;5.60;;;3.30;;
68976;SDS011;56029;52.568;13.588;2022-10-15T14:46:14;5.07;;;3.43;;
68976;SDS011;56029;52.568;13.588;2022-10-15T14:48:42;4.75;;;3.25;;
68976;SDS011;56029;52.568;13.588;2022-10-15T14:51:13;6.40;;;3.50;;
68976;SDS011;56029;52.568;13.588;2022-10-15T14:53:45;6.47;;;3.90;;
68976;SDS011;56029;52.568;13.588;2022-10-15T14:58:46;5.13;;;3.55;;
68976;SDS011;56029;52.568;13.588;2022-10-15T15:01:16;4.80;;;3.42;;
68976;SDS011;56029;52.568;13.588;2022-10-15T15:03:45;5.78;;;3.40;;
68976;SDS011;56029;52.568;13.588;2022-10-15T15:06:13;5.53;;;3.60;;
68976;SDS011;56029;52.568;13.588;2022-10-15T15:08:39;5.40;;;3.53;;
68976;SDS011;56029;52.568;13.588;2022-10-15T15:11:04;5.78;;;3.65;;
68976;SDS011;56029;52.568;13.588;2022-10-15T15:13:36;5.30;;;3.60;;
68976;SDS011;56029;52.568;13.588;2022-10-15T15:16:04;4.87;;;3.30;;
68976;SDS011;56029;52.568;13.588;2022-10-15T15:18:30;5.82;;;3.60;;
68976;SDS011;56029;52.568;13.588;2022-10-15T15:20:57;6.77;;;4.03;;
68976;SDS011;56029;52.568;13.588;2022-10-15T15:23:26;7.60;;;4.68;;
68976;SDS011;56029;52.568;13.588;2022-10-15T15:25:53;7.65;;;4.80;;
68976;SDS011;56029;52.568;13.588;2022-10-15T15:28:20;8.32;;;4.75;;
68976;SDS011;56029;52.568;13.588;2022-10-15T15:30:57;8.32;;;4.50;;
68976;SDS011;56029;52.568;13.588;2022-10-15T15:33:25;8.43;;;4.30;;
68976;SDS011;56029;52.568;13.588;2022-10-15T15:35:53;6.65;;;4.10;;
68976;SDS011;56029;52.568;13.588;2022-10-15T15:38:24;7.50;;;4.50;;
68976;SDS011;56029;52.568;13.588;2022-10-15T15:40:58;8.98;;;4.90;;
68976;SDS011;56029;52.568;13.588;2022-10-15T15:43:26;7.95;;;5.68;;
68976;SDS011;56029;52.568;13.588;2022-10-15T15:45:51;8.70;;;6.00;;
68976;SDS011;56029;52.568;13.588;2022-10-15T15:48:17;9.53;;;6.13;;
68976;SDS011;56029;52.568;13.588;2022-10-15T15:50:42;9.03;;;6.13;;
68976;SDS011;56029;52.568;13.588;2022-10-15T15:53:09;9.18;;;6.03;;
68976;SDS011;56029;52.568;13.588;2022-10-15T15:55:36;10.60;;;6.97;;
68976;SDS011;56029;52.568;13.588;2022-10-15T15:58:01;10.00;;;6.77;;
68976;SDS011;56029;52.568;13.588;2022-10-15T16:00:27;10.17;;;6.60;;
68976;SDS011;56029;52.568;13.588;2022-10-15T16:02:52;9.18;;;6.50;;